Monday, April 21, 2014
09:44 UTC
  |  Log In   |  Register Free
Airport Search:

Fairfield County Airport
(KFDW)

Fairfield County Airport Diagram
No Airport Diagram Available

FAA data valid effective April 3, 2014 until May 29, 2014 (unless otherwise noted).

 
 
 
 
 
 
 
 
 
 
 
 
 
 

Current Aviation Weather for Fairfield County Airport (KFDW)

The most recent METAR observation for KFDW was updated at: 0915 UTC
METAR Summary (Translated METAR)
KFDW
210915Z AUTO 36006KT 10SM CLR 09/06 A3013 RMK AO1
KCUB
(21.5 nm SE from KFDW)
210853Z AUTO VRB03KT 10SM CLR 12/06 A3013 RMK AO2 SLP202 T01220061 58005
TAF Summary (Translated TAF)
KCUB
(21.5 nm SE from KFDW)
210537Z 2106/2206 VRB03KT P6SM SKC FM211400 36006KT P6SM SKC
KCAE
(22.6 nm SW from KFDW)
210537Z 2106/2206 36005KT P6SM SKC FM211400 36008KT P6SM SKC
  Airport Weather Conditions for KFDW

 Current Weather at FDW
48° F
Fair
North winds at 6.9 mph
FDW NOAA Radar

Pressure: 30.13 in
Humidity: 82%
Wind: North at 6.9 MPH (6 KT)
Dew Point: 42.8°F
Visibility: 10.00 mi


Airport Weather Forecast for KFDW

Translated METAR and TAF for KFDW
Translated METAR for KFDW (0944 UTC 21 April 2014)
found at http://aviationweather.gov/adds/metars/
 
METAR text: KFDW 210955Z AUTO 01006KT 10SM CLR 09/05 A3013 RMK AO1
Conditions at: KFDW (WINNSBORO , SC, US) observed 0955 UTC 21 April 2014
Temperature: 9.0°C (48°F)
Dewpoint: 5.0°C (41°F) [RH = 76%]
Pressure (altimeter): 30.13 inches Hg (1020.4 mb)
Winds: from the N (10 degrees) at 7 MPH (6 knots; 3.1 m/s)
Visibility: 10 or more miles (16+ km)
Ceiling: at least 12,000 feet AGL
Clouds: sky clear below 12,000 feet AGL
Weather: automated observation with no human augmentation;
there may or may not be significant weather present at this time
Translated TAF for KFDW

There is no translated TAF available for this airport

Find All Airport Services Find A Hotel Find A Rental Car Find A Golf Course Find A Restaurant $100 Hamburger



FBO's on the Field
FBO Company Facility Photos Services Transportation Aviation Fuel Prices: Prices include tax
Catering Weather Repair Courtesy Rental Type 100LL JetA JetA+ MOGAS 8087
 
S & S Aviation Services

This FBO has not yet been rated
FS:Shell
Last Updated: Apr-17
Login to update fuel prices
SS:
Contact S & S Aviation ServicesMore FBO Information
 
Add another FBO Facility Photos Catering Weather Repair Courtesy Rental Type 100LL JetA JetA+ MOGAS 8087
Services Transportation Aviation Fuel Prices: Prices include tax


GlobalAir.com Airport Resource Center model-print
model-print
model-print
model-print